sensor_id;sensor_type;location;lat;lon;timestamp;temperature;humidity
429;DHT22;201;48.758;9.290;2022-12-17T00:01:55;-5.10;13.30
429;DHT22;201;48.758;9.290;2022-12-17T00:04:39;-5.20;13.60
429;DHT22;201;48.758;9.290;2022-12-17T00:07:23;-5.10;14.50
429;DHT22;201;48.758;9.290;2022-12-17T00:10:08;-5.20;14.10
429;DHT22;201;48.758;9.290;2022-12-17T00:12:52;-5.20;14.30
429;DHT22;201;48.758;9.290;2022-12-17T00:15:35;-5.20;14.50
429;DHT22;201;48.758;9.290;2022-12-17T00:18:20;-5.20;14.50
429;DHT22;201;48.758;9.290;2022-12-17T00:21:05;-5.30;14.70
429;DHT22;201;48.758;9.290;2022-12-17T00:23:49;-5.30;14.80
429;DHT22;201;48.758;9.290;2022-12-17T00:26:34;-5.30;15.00
429;DHT22;201;48.758;9.290;2022-12-17T00:29:18;-5.30;15.10
429;DHT22;201;48.758;9.290;2022-12-17T00:32:03;-5.30;15.20
429;DHT22;201;48.758;9.290;2022-12-17T00:34:47;-5.30;15.50
429;DHT22;201;48.758;9.290;2022-12-17T00:37:31;-5.30;15.80
429;DHT22;201;48.758;9.290;2022-12-17T00:40:15;-5.30;16.00
429;DHT22;201;48.758;9.290;2022-12-17T00:43:01;-5.30;16.40
429;DHT22;201;48.758;9.290;2022-12-17T00:45:46;-5.30;16.00
429;DHT22;201;48.758;9.290;2022-12-17T00:48:30;-5.30;15.60
429;DHT22;201;48.758;9.290;2022-12-17T00:51:14;-5.40;15.40
429;DHT22;201;48.758;9.290;2022-12-17T00:53:58;-5.40;15.30
429;DHT22;201;48.758;9.290;2022-12-17T00:56:42;-5.50;15.10
429;DHT22;201;48.758;9.290;2022-12-17T00:59:26;-5.50;15.20
429;DHT22;201;48.758;9.290;2022-12-17T01:02:10;-5.50;15.10
429;DHT22;201;48.758;9.290;2022-12-17T01:04:54;-5.50;15.00
429;DHT22;201;48.758;9.290;2022-12-17T01:07:38;-5.50;15.00
429;DHT22;201;48.758;9.290;2022-12-17T01:10:22;-5.50;15.20
429;DHT22;201;48.758;9.290;2022-12-17T01:13:06;-5.60;15.10
429;DHT22;201;48.758;9.290;2022-12-17T01:15:50;-5.60;15.20
429;DHT22;201;48.758;9.290;2022-12-17T01:18:34;-5.60;15.20
429;DHT22;201;48.758;9.290;2022-12-17T01:21:18;-5.60;15.20
429;DHT22;201;48.758;9.290;2022-12-17T01:24:03;-5.60;15.30
429;DHT22;201;48.758;9.290;2022-12-17T01:26:46;-5.60;15.50
429;DHT22;201;48.758;9.290;2022-12-17T01:29:31;-5.60;15.60
429;DHT22;201;48.758;9.290;2022-12-17T01:32:15;-5.60;15.80
429;DHT22;201;48.758;9.290;2022-12-17T01:34:59;-5.60;16.30
429;DHT22;201;48.758;9.290;2022-12-17T01:37:44;-5.50;16.40
429;DHT22;201;48.758;9.290;2022-12-17T01:40:28;-5.50;16.40
429;DHT22;201;48.758;9.290;2022-12-17T01:43:12;-5.50;16.40
429;DHT22;201;48.758;9.290;2022-12-17T01:45:57;-5.50;16.40
429;DHT22;201;48.758;9.290;2022-12-17T01:48:44;-5.60;16.30
429;DHT22;201;48.758;9.290;2022-12-17T01:51:30;-5.60;16.30
429;DHT22;201;48.758;9.290;2022-12-17T01:54:16;-5.60;16.00
429;DHT22;201;48.758;9.290;2022-12-17T01:57:03;-5.60;15.90
429;DHT22;201;48.758;9.290;2022-12-17T02:00:04;-5.60;15.90
429;DHT22;201;48.758;9.290;2022-12-17T02:02:49;-5.60;15.70
429;DHT22;201;48.758;9.290;2022-12-17T02:05:54;-5.60;16.10
429;DHT22;201;48.758;9.290;2022-12-17T02:11:56;-5.50;16.00
429;DHT22;201;48.758;9.290;2022-12-17T02:18:13;-5.40;15.60
429;DHT22;201;48.758;9.290;2022-12-17T02:21:00;-5.40;15.10
429;DHT22;201;48.758;9.290;2022-12-17T02:24:11;-5.30;14.90
429;DHT22;201;48.758;9.290;2022-12-17T02:27:00;-5.30;14.70
429;DHT22;201;48.758;9.290;2022-12-17T02:29:52;-5.30;14.50
429;DHT22;201;48.758;9.290;2022-12-17T02:32:39;-5.30;14.30
429;DHT22;201;48.758;9.290;2022-12-17T02:35:30;-5.20;14.30
429;DHT22;201;48.758;9.290;2022-12-17T02:38:26;-5.30;14.30
429;DHT22;201;48.758;9.290;2022-12-17T02:41:16;-5.20;14.40
429;DHT22;201;48.758;9.290;2022-12-17T02:44:01;-5.10;14.50
429;DHT22;201;48.758;9.290;2022-12-17T02:46:46;-5.10;14.50
429;DHT22;201;48.758;9.290;2022-12-17T02:49:31;-5.10;14.70
429;DHT22;201;48.758;9.290;2022-12-17T02:52:17;-5.00;14.80
429;DHT22;201;48.758;9.290;2022-12-17T02:55:21;-5.00;15.00
429;DHT22;201;48.758;9.290;2022-12-17T02:58:05;-4.90;15.30
429;DHT22;201;48.758;9.290;2022-12-17T03:00:49;-4.90;15.80
429;DHT22;201;48.758;9.290;2022-12-17T03:03:33;-4.80;16.30
429;DHT22;201;48.758;9.290;2022-12-17T03:06:17;-4.70;16.60
429;DHT22;201;48.758;9.290;2022-12-17T03:09:02;-4.70;16.40
429;DHT22;201;48.758;9.290;2022-12-17T03:11:46;-4.80;16.80
429;DHT22;201;48.758;9.290;2022-12-17T03:14:30;-4.70;16.90
429;DHT22;201;48.758;9.290;2022-12-17T03:17:14;-4.60;17.00
429;DHT22;201;48.758;9.290;2022-12-17T03:19:58;-4.70;16.90
429;DHT22;201;48.758;9.290;2022-12-17T03:22:42;-4.70;16.90
429;DHT22;201;48.758;9.290;2022-12-17T03:25:26;-4.70;16.90
429;DHT22;201;48.758;9.290;2022-12-17T03:28:10;-4.70;16.90
429;DHT22;201;48.758;9.290;2022-12-17T03:30:58;-4.60;17.00
429;DHT22;201;48.758;9.290;2022-12-17T03:33:42;-4.50;17.10
429;DHT22;201;48.758;9.290;2022-12-17T03:36:27;-4.40;17.10
429;DHT22;201;48.758;9.290;2022-12-17T03:39:11;-4.30;17.20
429;DHT22;201;48.758;9.290;2022-12-17T03:41:55;-4.30;17.20
429;DHT22;201;48.758;9.290;2022-12-17T03:44:39;-4.30;17.20
429;DHT22;201;48.758;9.290;2022-12-17T03:47:23;-4.20;17.30
429;DHT22;201;48.758;9.290;2022-12-17T03:50:07;-4.20;16.70
429;DHT22;201;48.758;9.290;2022-12-17T03:52:52;-4.20;16.40
429;DHT22;201;48.758;9.290;2022-12-17T03:55:36;-4.20;16.10
429;DHT22;201;48.758;9.290;2022-12-17T03:58:20;-4.10;16.00
429;DHT22;201;48.758;9.290;2022-12-17T04:01:04;-4.10;15.80
429;DHT22;201;48.758;9.290;2022-12-17T04:03:48;-4.10;15.60
429;DHT22;201;48.758;9.290;2022-12-17T04:06:32;-4.00;15.40
429;DHT22;201;48.758;9.290;2022-12-17T04:09:16;-4.00;15.40
429;DHT22;201;48.758;9.290;2022-12-17T04:12:00;-4.00;15.20
429;DHT22;201;48.758;9.290;2022-12-17T04:14:44;-3.90;15.10
429;DHT22;201;48.758;9.290;2022-12-17T04:17:28;-3.90;14.80
429;DHT22;201;48.758;9.290;2022-12-17T04:20:12;-3.80;14.50
429;DHT22;201;48.758;9.290;2022-12-17T04:22:56;-3.80;14.40
429;DHT22;201;48.758;9.290;2022-12-17T04:25:40;-3.80;14.20
429;DHT22;201;48.758;9.290;2022-12-17T04:28:24;-3.80;14.00
429;DHT22;201;48.758;9.290;2022-12-17T04:31:08;-3.80;14.00
429;DHT22;201;48.758;9.290;2022-12-17T04:33:52;-3.80;13.50
429;DHT22;201;48.758;9.290;2022-12-17T04:36:37;-3.80;13.50
429;DHT22;201;48.758;9.290;2022-12-17T04:39:21;-3.80;13.50
429;DHT22;201;48.758;9.290;2022-12-17T04:42:05;-3.80;13.10
429;DHT22;201;48.758;9.290;2022-12-17T04:44:49;-3.80;12.80
429;DHT22;201;48.758;9.290;2022-12-17T04:47:33;-3.90;12.40
429;DHT22;201;48.758;9.290;2022-12-17T04:50:18;-3.90;12.20
429;DHT22;201;48.758;9.290;2022-12-17T04:53:04;-3.90;12.30
429;DHT22;201;48.758;9.290;2022-12-17T04:55:49;-4.00;12.30
429;DHT22;201;48.758;9.290;2022-12-17T04:58:33;-4.10;12.40
429;DHT22;201;48.758;9.290;2022-12-17T05:01:17;-4.20;12.60
429;DHT22;201;48.758;9.290;2022-12-17T05:04:01;-4.20;13.00
429;DHT22;201;48.758;9.290;2022-12-17T05:06:45;-4.40;13.10
429;DHT22;201;48.758;9.290;2022-12-17T05:09:29;-4.40;13.30
429;DHT22;201;48.758;9.290;2022-12-17T05:12:13;-4.40;13.50
429;DHT22;201;48.758;9.290;2022-12-17T05:14:57;-4.40;13.80
429;DHT22;201;48.758;9.290;2022-12-17T05:17:41;-4.30;13.90
429;DHT22;201;48.758;9.290;2022-12-17T05:20:25;-4.20;13.90
429;DHT22;201;48.758;9.290;2022-12-17T05:23:10;-4.20;13.60
429;DHT22;201;48.758;9.290;2022-12-17T05:26:12;-4.10;13.60
429;DHT22;201;48.758;9.290;2022-12-17T05:28:58;-4.00;13.40
429;DHT22;201;48.758;9.290;2022-12-17T05:31:42;-4.10;13.00
429;DHT22;201;48.758;9.290;2022-12-17T05:34:26;-4.20;12.80
429;DHT22;201;48.758;9.290;2022-12-17T05:37:10;-4.40;12.70
429;DHT22;201;48.758;9.290;2022-12-17T05:39:54;-4.50;12.70
429;DHT22;201;48.758;9.290;2022-12-17T05:42:38;-4.60;13.00
429;DHT22;201;48.758;9.290;2022-12-17T05:45:22;-4.50;13.00
429;DHT22;201;48.758;9.290;2022-12-17T05:48:06;-4.40;13.00
429;DHT22;201;48.758;9.290;2022-12-17T05:50:50;-4.60;13.00
429;DHT22;201;48.758;9.290;2022-12-17T05:53:34;-4.60;13.00
429;DHT22;201;48.758;9.290;2022-12-17T05:56:19;-4.50;13.20
429;DHT22;201;48.758;9.290;2022-12-17T05:59:03;-4.50;13.20
429;DHT22;201;48.758;9.290;2022-12-17T06:01:47;-4.50;13.00
429;DHT22;201;48.758;9.290;2022-12-17T06:04:31;-4.70;13.00
429;DHT22;201;48.758;9.290;2022-12-17T06:07:15;-4.80;13.30
429;DHT22;201;48.758;9.290;2022-12-17T06:09:59;-4.90;13.60
429;DHT22;201;48.758;9.290;2022-12-17T06:12:43;-4.90;14.10
429;DHT22;201;48.758;9.290;2022-12-17T06:15:27;-4.80;14.10
429;DHT22;201;48.758;9.290;2022-12-17T06:18:11;-4.80;14.30
429;DHT22;201;48.758;9.290;2022-12-17T06:20:55;-4.80;14.60
429;DHT22;201;48.758;9.290;2022-12-17T06:23:39;-4.70;14.80
429;DHT22;201;48.758;9.290;2022-12-17T06:26:24;-4.70;14.70
429;DHT22;201;48.758;9.290;2022-12-17T06:29:07;-4.80;14.60
429;DHT22;201;48.758;9.290;2022-12-17T06:31:52;-4.90;14.50
429;DHT22;201;48.758;9.290;2022-12-17T06:34:35;-4.90;14.50
429;DHT22;201;48.758;9.290;2022-12-17T06:37:19;-4.90;14.80
429;DHT22;201;48.758;9.290;2022-12-17T06:40:04;-4.70;15.00
429;DHT22;201;48.758;9.290;2022-12-17T06:42:53;-4.90;14.70
429;DHT22;201;48.758;9.290;2022-12-17T06:45:37;-5.00;14.70
429;DHT22;201;48.758;9.290;2022-12-17T06:48:21;-5.00;14.90
429;DHT22;201;48.758;9.290;2022-12-17T06:51:05;-5.10;15.10
429;DHT22;201;48.758;9.290;2022-12-17T06:53:49;-5.20;15.10
429;DHT22;201;48.758;9.290;2022-12-17T06:56:32;-5.20;15.30
429;DHT22;201;48.758;9.290;2022-12-17T06:59:16;-5.20;15.60
429;DHT22;201;48.758;9.290;2022-12-17T07:02:00;-5.30;15.80
429;DHT22;201;48.758;9.290;2022-12-17T07:04:44;-5.10;16.10
429;DHT22;201;48.758;9.290;2022-12-17T07:07:28;-5.10;16.10
429;DHT22;201;48.758;9.290;2022-12-17T07:10:13;-5.10;16.10
429;DHT22;201;48.758;9.290;2022-12-17T07:13:03;-5.10;16.10
429;DHT22;201;48.758;9.290;2022-12-17T07:15:47;-5.10;16.20
429;DHT22;201;48.758;9.290;2022-12-17T07:18:31;-5.10;16.10
429;DHT22;201;48.758;9.290;2022-12-17T07:21:15;-5.10;15.90
429;DHT22;201;48.758;9.290;2022-12-17T07:23:59;-5.10;16.00
429;DHT22;201;48.758;9.290;2022-12-17T07:26:43;-5.00;16.10
429;DHT22;201;48.758;9.290;2022-12-17T07:29:27;-5.00;15.80
429;DHT22;201;48.758;9.290;2022-12-17T07:32:11;-5.10;15.40
429;DHT22;201;48.758;9.290;2022-12-17T07:34:55;-5.10;15.10
429;DHT22;201;48.758;9.290;2022-12-17T07:37:39;-5.10;15.20
429;DHT22;201;48.758;9.290;2022-12-17T07:40:23;-5.10;15.30
429;DHT22;201;48.758;9.290;2022-12-17T07:43:27;-5.20;15.20
429;DHT22;201;48.758;9.290;2022-12-17T07:46:11;-5.20;15.40
429;DHT22;201;48.758;9.290;2022-12-17T07:48:55;-5.20;15.60
429;DHT22;201;48.758;9.290;2022-12-17T07:51:39;-5.20;15.60
429;DHT22;201;48.758;9.290;2022-12-17T07:54:23;-5.20;15.80
429;DHT22;201;48.758;9.290;2022-12-17T07:57:07;-5.10;15.90
429;DHT22;201;48.758;9.290;2022-12-17T07:59:52;-5.10;15.90
429;DHT22;201;48.758;9.290;2022-12-17T08:02:36;-5.00;15.90
429;DHT22;201;48.758;9.290;2022-12-17T08:05:20;-4.90;15.90
429;DHT22;201;48.758;9.290;2022-12-17T08:08:09;-4.90;15.50
429;DHT22;201;48.758;9.290;2022-12-17T08:10:53;-5.00;14.80
429;DHT22;201;48.758;9.290;2022-12-17T08:13:38;-4.80;14.70
429;DHT22;201;48.758;9.290;2022-12-17T08:16:22;-4.70;14.60
429;DHT22;201;48.758;9.290;2022-12-17T08:19:06;-4.70;14.30
429;DHT22;201;48.758;9.290;2022-12-17T08:21:50;-4.60;14.20
429;DHT22;201;48.758;9.290;2022-12-17T08:24:34;-4.70;12.90
429;DHT22;201;48.758;9.290;2022-12-17T08:27:18;-4.70;12.90
429;DHT22;201;48.758;9.290;2022-12-17T08:30:19;-4.70;12.50
429;DHT22;201;48.758;9.290;2022-12-17T08:33:04;-4.50;12.20
429;DHT22;201;48.758;9.290;2022-12-17T08:35:53;-4.50;12.00
429;DHT22;201;48.758;9.290;2022-12-17T08:38:37;-4.40;12.00
429;DHT22;201;48.758;9.290;2022-12-17T08:41:21;-4.30;11.70
429;DHT22;201;48.758;9.290;2022-12-17T08:44:05;-4.30;11.20
429;DHT22;201;48.758;9.290;2022-12-17T08:46:50;-4.10;11.30
429;DHT22;201;48.758;9.290;2022-12-17T08:49:34;-4.00;10.70
429;DHT22;201;48.758;9.290;2022-12-17T08:52:18;-4.00;9.70
429;DHT22;201;48.758;9.290;2022-12-17T08:55:02;-4.20;9.10
429;DHT22;201;48.758;9.290;2022-12-17T08:57:56;-4.20;9.10
429;DHT22;201;48.758;9.290;2022-12-17T09:00:41;-4.20;9.10
429;DHT22;201;48.758;9.290;2022-12-17T09:03:25;-4.10;9.10
429;DHT22;201;48.758;9.290;2022-12-17T09:06:09;-4.00;9.20
429;DHT22;201;48.758;9.290;2022-12-17T09:08:54;-4.00;8.20
429;DHT22;201;48.758;9.290;2022-12-17T09:11:38;-4.00;8.60
429;DHT22;201;48.758;9.290;2022-12-17T09:14:22;-3.90;8.70
429;DHT22;201;48.758;9.290;2022-12-17T09:17:05;-3.90;8.70
429;DHT22;201;48.758;9.290;2022-12-17T09:19:50;-4.00;8.70
429;DHT22;201;48.758;9.290;2022-12-17T09:22:34;-4.00;8.90
429;DHT22;201;48.758;9.290;2022-12-17T09:25:18;-3.90;9.40
429;DHT22;201;48.758;9.290;2022-12-17T09:28:02;-3.90;8.60
429;DHT22;201;48.758;9.290;2022-12-17T09:30:46;-4.10;7.80
429;DHT22;201;48.758;9.290;2022-12-17T09:33:31;-4.00;8.20
429;DHT22;201;48.758;9.290;2022-12-17T09:36:15;-3.90;8.30
429;DHT22;201;48.758;9.290;2022-12-17T09:39:00;-3.80;8.10
429;DHT22;201;48.758;9.290;2022-12-17T09:42:05;-3.70;7.80
429;DHT22;201;48.758;9.290;2022-12-17T09:45:52;-3.80;7.30
429;DHT22;201;48.758;9.290;2022-12-17T09:48:45;-4.00;7.50
429;DHT22;201;48.758;9.290;2022-12-17T09:51:34;-3.90;7.70
429;DHT22;201;48.758;9.290;2022-12-17T09:54:51;-3.80;7.60
429;DHT22;201;48.758;9.290;2022-12-17T09:57:36;-3.80;7.40
429;DHT22;201;48.758;9.290;2022-12-17T10:00:25;-3.80;7.20
429;DHT22;201;48.758;9.290;2022-12-17T10:03:16;-3.70;6.90
429;DHT22;201;48.758;9.290;2022-12-17T10:06:05;-3.80;6.80
429;DHT22;201;48.758;9.290;2022-12-17T10:08:55;-3.90;7.10
429;DHT22;201;48.758;9.290;2022-12-17T10:11:40;-3.90;7.50
429;DHT22;201;48.758;9.290;2022-12-17T10:14:25;-3.60;7.90
429;DHT22;201;48.758;9.290;2022-12-17T10:17:20;-3.60;6.50
429;DHT22;201;48.758;9.290;2022-12-17T10:20:24;-3.40;6.10
429;DHT22;201;48.758;9.290;2022-12-17T10:23:09;-3.30;5.90
429;DHT22;201;48.758;9.290;2022-12-17T10:25:54;-3.30;5.50
429;DHT22;201;48.758;9.290;2022-12-17T10:28:39;-3.30;5.50
429;DHT22;201;48.758;9.290;2022-12-17T10:31:28;-3.30;6.00
429;DHT22;201;48.758;9.290;2022-12-17T10:34:15;-3.40;5.20
429;DHT22;201;48.758;9.290;2022-12-17T10:37:00;-3.70;5.20
429;DHT22;201;48.758;9.290;2022-12-17T10:39:54;-3.60;6.40
429;DHT22;201;48.758;9.290;2022-12-17T10:42:39;-3.50;5.80
429;DHT22;201;48.758;9.290;2022-12-17T10:45:32;-3.50;5.30
429;DHT22;201;48.758;9.290;2022-12-17T10:48:28;-3.50;5.30
429;DHT22;201;48.758;9.290;2022-12-17T10:51:33;-3.50;5.30
429;DHT22;201;48.758;9.290;2022-12-17T10:54:31;-3.60;5.30
429;DHT22;201;48.758;9.290;2022-12-17T10:57:25;-3.50;5.30
429;DHT22;201;48.758;9.290;2022-12-17T11:00:35;-3.30;5.40
429;DHT22;201;48.758;9.290;2022-12-17T11:06:07;-3.20;4.10
429;DHT22;201;48.758;9.290;2022-12-17T11:08:51;-3.30;3.80
429;DHT22;201;48.758;9.290;2022-12-17T11:11:35;-3.30;4.20
429;DHT22;201;48.758;9.290;2022-12-17T11:14:20;-3.40;4.20
429;DHT22;201;48.758;9.290;2022-12-17T11:17:05;-3.50;4.20
429;DHT22;201;48.758;9.290;2022-12-17T11:20:03;-3.40;4.40
429;DHT22;201;48.758;9.290;2022-12-17T11:22:55;-3.30;3.70
429;DHT22;201;48.758;9.290;2022-12-17T11:28:37;-3.20;4.10
429;DHT22;201;48.758;9.290;2022-12-17T11:35:02;-3.20;4.10
429;DHT22;201;48.758;9.290;2022-12-17T11:38:02;-3.40;3.30
429;DHT22;201;48.758;9.290;2022-12-17T11:40:58;-3.60;3.80
429;DHT22;201;48.758;9.290;2022-12-17T11:47:00;-3.60;4.60
429;DHT22;201;48.758;9.290;2022-12-17T11:49:58;-3.70;5.20
429;DHT22;201;48.758;9.290;2022-12-17T11:56:15;-3.80;5.10
429;DHT22;201;48.758;9.290;2022-12-17T12:02:31;-3.80;5.10
429;DHT22;201;48.758;9.290;2022-12-17T12:05:44;-3.80;5.10
429;DHT22;201;48.758;9.290;2022-12-17T12:08:34;-3.70;5.20
429;DHT22;201;48.758;9.290;2022-12-17T12:14:32;-3.30;4.60
429;DHT22;201;48.758;9.290;2022-12-17T12:17:39;-3.10;4.70
429;DHT22;201;48.758;9.290;2022-12-17T12:20:51;-3.00;2.40
429;DHT22;201;48.758;9.290;2022-12-17T12:24:06;-3.00;2.40
429;DHT22;201;48.758;9.290;2022-12-17T12:29:45;-3.10;2.20
429;DHT22;201;48.758;9.290;2022-12-17T12:32:48;-3.00;1.90
429;DHT22;201;48.758;9.290;2022-12-17T12:35:36;-3.20;2.00
429;DHT22;201;48.758;9.290;2022-12-17T12:38:26;-3.20;2.60
429;DHT22;201;48.758;9.290;2022-12-17T12:41:24;-3.10;2.50
429;DHT22;201;48.758;9.290;2022-12-17T12:44:36;-3.40;2.30
429;DHT22;201;48.758;9.290;2022-12-17T12:47:45;-3.50;3.30
429;DHT22;201;48.758;9.290;2022-12-17T12:51:12;-3.30;3.00
429;DHT22;201;48.758;9.290;2022-12-17T12:53:59;-3.30;2.00
429;DHT22;201;48.758;9.290;2022-12-17T12:56:43;-3.50;2.10
429;DHT22;201;48.758;9.290;2022-12-17T12:59:30;-3.40;2.60
429;DHT22;201;48.758;9.290;2022-12-17T13:02:31;-3.20;2.60
429;DHT22;201;48.758;9.290;2022-12-17T13:10:33;-3.00;1.50
429;DHT22;201;48.758;9.290;2022-12-17T13:13:24;-2.90;1.50
429;DHT22;201;48.758;9.290;2022-12-17T13:15:56;-2.70;1.60
429;DHT22;201;48.758;9.290;2022-12-17T13:18:31;-2.80;1.50
429;DHT22;201;48.758;9.290;2022-12-17T13:21:21;-2.90;1.50
429;DHT22;201;48.758;9.290;2022-12-17T13:23:47;-3.00;1.40
429;DHT22;201;48.758;9.290;2022-12-17T13:26:19;-3.00;1.40
429;DHT22;201;48.758;9.290;2022-12-17T13:29:01;-3.00;1.40
429;DHT22;201;48.758;9.290;2022-12-17T13:32:31;-3.10;2.00
429;DHT22;201;48.758;9.290;2022-12-17T13:35:04;-3.20;1.60
429;DHT22;201;48.758;9.290;2022-12-17T13:37:53;-3.20;2.00
429;DHT22;201;48.758;9.290;2022-12-17T13:40:35;-3.20;2.20
429;DHT22;201;48.758;9.290;2022-12-17T13:43:01;-3.30;2.00
429;DHT22;201;48.758;9.290;2022-12-17T13:45:28;-3.50;2.70
429;DHT22;201;48.758;9.290;2022-12-17T13:47:58;-3.40;3.00
429;DHT22;201;48.758;9.290;2022-12-17T13:50:28;-3.40;3.00
429;DHT22;201;48.758;9.290;2022-12-17T13:52:54;-3.40;3.10
429;DHT22;201;48.758;9.290;2022-12-17T13:55:25;-3.50;2.90
429;DHT22;201;48.758;9.290;2022-12-17T13:57:52;-3.60;3.00
429;DHT22;201;48.758;9.290;2022-12-17T14:00:27;-3.70;3.20
429;DHT22;201;48.758;9.290;2022-12-17T14:02:53;-3.70;3.70
429;DHT22;201;48.758;9.290;2022-12-17T14:05:31;-3.70;3.90
429;DHT22;201;48.758;9.290;2022-12-17T14:07:59;-3.70;4.30
429;DHT22;201;48.758;9.290;2022-12-17T14:10:25;-3.60;4.40
429;DHT22;201;48.758;9.290;2022-12-17T14:13:01;-3.50;4.20
429;DHT22;201;48.758;9.290;2022-12-17T14:15:28;-3.50;4.10
429;DHT22;201;48.758;9.290;2022-12-17T14:17:56;-3.50;3.80
429;DHT22;201;48.758;9.290;2022-12-17T14:20:25;-3.50;3.60
429;DHT22;201;48.758;9.290;2022-12-17T14:23:05;-3.60;3.60
429;DHT22;201;48.758;9.290;2022-12-17T14:25:34;-3.60;3.20
429;DHT22;201;48.758;9.290;2022-12-17T14:28:05;-3.80;3.20
429;DHT22;201;48.758;9.290;2022-12-17T14:30:39;-4.10;3.20
429;DHT22;201;48.758;9.290;2022-12-17T14:33:28;-4.40;3.60
429;DHT22;201;48.758;9.290;2022-12-17T14:35:59;-4.60;4.30
429;DHT22;201;48.758;9.290;2022-12-17T14:38:26;-4.70;4.90
429;DHT22;201;48.758;9.290;2022-12-17T14:40:52;-4.80;5.40
429;DHT22;201;48.758;9.290;2022-12-17T14:43:25;-4.90;5.70
429;DHT22;201;48.758;9.290;2022-12-17T14:45:55;-4.90;5.90
429;DHT22;201;48.758;9.290;2022-12-17T14:48:42;-5.00;6.30
429;DHT22;201;48.758;9.290;2022-12-17T14:51:32;-5.00;6.50
429;DHT22;201;48.758;9.290;2022-12-17T14:56:52;-5.30;6.60
429;DHT22;201;48.758;9.290;2022-12-17T14:59:34;-5.40;6.80
429;DHT22;201;48.758;9.290;2022-12-17T15:02:23;-5.50;7.50
429;DHT22;201;48.758;9.290;2022-12-17T15:04:49;-5.60;8.00
429;DHT22;201;48.758;9.290;2022-12-17T15:07:25;-5.70;8.00
429;DHT22;201;48.758;9.290;2022-12-17T15:09:52;-5.80;8.00
429;DHT22;201;48.758;9.290;2022-12-17T15:12:19;-5.90;7.90
429;DHT22;201;48.758;9.290;2022-12-17T15:14:45;-6.00;7.80
429;DHT22;201;48.758;9.290;2022-12-17T15:17:11;-6.10;7.80
429;DHT22;201;48.758;9.290;2022-12-17T15:19:36;-6.10;8.10
429;DHT22;201;48.758;9.290;2022-12-17T15:22:02;-6.20;8.60
429;DHT22;201;48.758;9.290;2022-12-17T15:24:28;-6.30;8.80
429;DHT22;201;48.758;9.290;2022-12-17T15:26:54;-6.40;8.80
429;DHT22;201;48.758;9.290;2022-12-17T15:29:19;-6.40;9.20
429;DHT22;201;48.758;9.290;2022-12-17T15:31:45;-6.40;9.70
429;DHT22;201;48.758;9.290;2022-12-17T15:34:11;-6.40;9.90
429;DHT22;201;48.758;9.290;2022-12-17T15:36:36;-6.40;10.10
429;DHT22;201;48.758;9.290;2022-12-17T15:39:02;-6.40;10.60
429;DHT22;201;48.758;9.290;2022-12-17T15:41:30;-6.40;11.50
429;DHT22;201;48.758;9.290;2022-12-17T15:44:14;-6.40;11.90
429;DHT22;201;48.758;9.290;2022-12-17T15:46:40;-6.40;12.20
429;DHT22;201;48.758;9.290;2022-12-17T15:49:05;-6.40;12.60
429;DHT22;201;48.758;9.290;2022-12-17T15:51:31;-6.40;12.90
429;DHT22;201;48.758;9.290;2022-12-17T15:53:56;-6.40;13.20
429;DHT22;201;48.758;9.290;2022-12-17T15:56:26;-6.40;13.60
429;DHT22;201;48.758;9.290;2022-12-17T15:58:55;-6.40;14.00
429;DHT22;201;48.758;9.290;2022-12-17T16:01:21;-6.40;14.30
429;DHT22;201;48.758;9.290;2022-12-17T16:03:46;-6.40;14.50
429;DHT22;201;48.758;9.290;2022-12-17T16:06:12;-6.30;14.80
429;DHT22;201;48.758;9.290;2022-12-17T16:08:38;-6.40;15.10
429;DHT22;201;48.758;9.290;2022-12-17T16:11:11;-6.40;15.60
429;DHT22;201;48.758;9.290;2022-12-17T16:13:37;-6.30;15.80
429;DHT22;201;48.758;9.290;2022-12-17T16:16:04;-6.30;15.80
429;DHT22;201;48.758;9.290;2022-12-17T16:18:29;-6.30;15.90
429;DHT22;201;48.758;9.290;2022-12-17T16:21:01;-6.30;15.90
429;DHT22;201;48.758;9.290;2022-12-17T16:23:27;-6.30;15.80
429;DHT22;201;48.758;9.290;2022-12-17T16:25:57;-6.30;15.80
429;DHT22;201;48.758;9.290;2022-12-17T16:28:23;-6.40;15.70
429;DHT22;201;48.758;9.290;2022-12-17T16:30:59;-6.40;15.80
429;DHT22;201;48.758;9.290;2022-12-17T16:33:25;-6.40;15.70
429;DHT22;201;48.758;9.290;2022-12-17T16:35:52;-6.50;15.70
429;DHT22;201;48.758;9.290;2022-12-17T16:38:17;-6.50;15.70
429;DHT22;201;48.758;9.290;2022-12-17T16:40:43;-6.50;15.70
429;DHT22;201;48.758;9.290;2022-12-17T16:43:08;-6.50;15.70
429;DHT22;201;48.758;9.290;2022-12-17T16:45:34;-6.50;15.70
429;DHT22;201;48.758;9.290;2022-12-17T16:48:00;-6.60;15.60
429;DHT22;201;48.758;9.290;2022-12-17T16:50:26;-6.60;15.60
429;DHT22;201;48.758;9.290;2022-12-17T16:52:54;-6.60;16.00
429;DHT22;201;48.758;9.290;2022-12-17T16:55:20;-6.60;16.20
429;DHT22;201;48.758;9.290;2022-12-17T16:57:45;-6.70;16.30
429;DHT22;201;48.758;9.290;2022-12-17T17:00:11;-6.70;16.30
429;DHT22;201;48.758;9.290;2022-12-17T17:02:37;-6.70;16.50
429;DHT22;201;48.758;9.290;2022-12-17T17:05:03;-6.70;16.50
429;DHT22;201;48.758;9.290;2022-12-17T17:07:28;-6.70;16.60
429;DHT22;201;48.758;9.290;2022-12-17T17:09:54;-6.70;16.70
429;DHT22;201;48.758;9.290;2022-12-17T17:12:19;-6.80;16.60
429;DHT22;201;48.758;9.290;2022-12-17T17:14:45;-6.80;16.70
429;DHT22;201;48.758;9.290;2022-12-17T17:17:10;-6.80;16.90
429;DHT22;201;48.758;9.290;2022-12-17T17:19:36;-6.90;17.10
429;DHT22;201;48.758;9.290;2022-12-17T17:22:01;-6.90;17.20
429;DHT22;201;48.758;9.290;2022-12-17T17:24:27;-6.90;17.40
429;DHT22;201;48.758;9.290;2022-12-17T17:26:54;-6.90;17.50
429;DHT22;201;48.758;9.290;2022-12-17T17:29:20;-6.90;17.60
429;DHT22;201;48.758;9.290;2022-12-17T17:31:45;-7.00;17.50
429;DHT22;201;48.758;9.290;2022-12-17T17:34:13;-6.90;17.70
429;DHT22;201;48.758;9.290;2022-12-17T17:36:39;-7.00;17.50
429;DHT22;201;48.758;9.290;2022-12-17T17:39:05;-7.00;17.60
429;DHT22;201;48.758;9.290;2022-12-17T17:41:31;-7.00;17.60
429;DHT22;201;48.758;9.290;2022-12-17T17:44:00;-7.00;17.60
429;DHT22;201;48.758;9.290;2022-12-17T17:46:27;-7.00;17.70
429;DHT22;201;48.758;9.290;2022-12-17T17:48:55;-7.00;17.60
429;DHT22;201;48.758;9.290;2022-12-17T17:51:26;-7.00;17.70
429;DHT22;201;48.758;9.290;2022-12-17T17:53:53;-7.00;17.60
429;DHT22;201;48.758;9.290;2022-12-17T17:56:27;-7.00;17.80
429;DHT22;201;48.758;9.290;2022-12-17T17:58:57;-7.00;17.70
429;DHT22;201;48.758;9.290;2022-12-17T18:01:26;-7.00;17.60
429;DHT22;201;48.758;9.290;2022-12-17T18:03:55;-7.00;17.60
429;DHT22;201;48.758;9.290;2022-12-17T18:06:21;-7.00;17.70
429;DHT22;201;48.758;9.290;2022-12-17T18:08:47;-7.00;17.70
429;DHT22;201;48.758;9.290;2022-12-17T18:11:15;-6.90;17.70
429;DHT22;201;48.758;9.290;2022-12-17T18:13:42;-6.90;17.60
429;DHT22;201;48.758;9.290;2022-12-17T18:16:29;-6.90;17.60
429;DHT22;201;48.758;9.290;2022-12-17T18:19:10;-7.00;17.40
429;DHT22;201;48.758;9.290;2022-12-17T18:21:37;-7.00;17.40
429;DHT22;201;48.758;9.290;2022-12-17T18:24:18;-7.00;17.40
429;DHT22;201;48.758;9.290;2022-12-17T18:26:44;-7.00;17.30
429;DHT22;201;48.758;9.290;2022-12-17T18:29:14;-7.00;17.30
429;DHT22;201;48.758;9.290;2022-12-17T18:31:40;-7.00;17.30
429;DHT22;201;48.758;9.290;2022-12-17T18:34:07;-7.00;17.30
429;DHT22;201;48.758;9.290;2022-12-17T18:36:37;-7.00;17.30
429;DHT22;201;48.758;9.290;2022-12-17T18:39:06;-7.10;17.00
429;DHT22;201;48.758;9.290;2022-12-17T18:41:32;-7.10;17.10
429;DHT22;201;48.758;9.290;2022-12-17T18:44:17;-7.00;17.20
429;DHT22;201;48.758;9.290;2022-12-17T18:46:43;-7.00;17.00
429;DHT22;201;48.758;9.290;2022-12-17T18:49:10;-7.10;17.00
429;DHT22;201;48.758;9.290;2022-12-17T18:51:39;-7.10;16.90
429;DHT22;201;48.758;9.290;2022-12-17T18:54:06;-7.10;16.90
429;DHT22;201;48.758;9.290;2022-12-17T18:56:34;-7.10;16.90